createdAt,value
2023-02-15T00:01:35.037Z,9.05
2023-02-15T00:06:32.097Z,8.77
2023-02-15T00:11:40.535Z,8.05
2023-02-15T00:16:38.117Z,9.70
2023-02-15T00:21:36.486Z,9.00
2023-02-15T00:26:33.906Z,6.82
2023-02-15T00:31:32.660Z,9.32
2023-02-15T00:36:29.152Z,8.10
2023-02-15T00:41:26.214Z,8.65
2023-02-15T00:46:22.723Z,8.65
2023-02-15T00:51:19.376Z,8.65
2023-02-15T00:56:15.824Z,7.78
2023-02-15T01:01:16.545Z,8.70
2023-02-15T01:06:14.798Z,7.25
2023-02-15T01:11:14.340Z,8.40
2023-02-15T01:16:10.805Z,8.05
2023-02-15T01:21:12.698Z,8.90
2023-02-15T01:26:10.174Z,8.60
2023-02-15T01:31:12.196Z,8.40
2023-02-15T01:36:09.049Z,8.13
2023-02-15T01:41:24.569Z,8.48
2023-02-15T01:46:25.843Z,8.55
2023-02-15T01:51:27.510Z,7.60
2023-02-15T01:56:31.353Z,8.43
2023-02-15T02:01:28.418Z,7.00
2023-02-15T02:06:26.552Z,7.65
2023-02-15T02:11:23.317Z,8.00
2023-02-15T02:16:51.227Z,7.70
2023-02-15T02:22:25.278Z,5.63
2023-02-15T02:27:40.316Z,8.10
2023-02-15T02:33:01.552Z,6.97
2023-02-15T02:38:19.827Z,7.45
2023-02-15T02:43:24.232Z,7.75
2023-02-15T02:48:27.726Z,8.40
2023-02-15T02:53:24.427Z,6.95
2023-02-15T02:58:30.198Z,7.85
2023-02-15T03:03:31.340Z,7.65
2023-02-15T03:08:36.522Z,7.93
2023-02-15T03:13:34.422Z,8.65
2023-02-15T03:18:36.594Z,9.77
2023-02-15T03:23:35.604Z,8.48
2023-02-15T03:28:42.094Z,7.72
2023-02-15T03:33:45.869Z,8.70
2023-02-15T03:39:00.265Z,8.85
2023-02-15T03:44:01.766Z,9.73
2023-02-15T03:49:21.156Z,9.35
2023-02-15T03:54:43.802Z,9.07
2023-02-15T03:59:58.804Z,9.18
2023-02-15T04:04:55.138Z,8.50
2023-02-15T04:10:10.109Z,9.77
2023-02-15T04:15:39.099Z,9.75
2023-02-15T04:20:54.008Z,10.40
2023-02-15T04:25:50.329Z,9.32
2023-02-15T04:30:47.512Z,8.55
2023-02-15T04:35:45.949Z,9.15
2023-02-15T04:40:42.310Z,9.55
2023-02-15T04:45:38.770Z,9.18
2023-02-15T04:50:35.127Z,9.05
2023-02-15T04:55:31.614Z,8.93
2023-02-15T05:00:28.463Z,9.63
2023-02-15T05:05:24.997Z,10.55
2023-02-15T05:10:21.421Z,9.75
2023-02-15T05:15:17.862Z,11.63
2023-02-15T05:20:14.742Z,13.13
2023-02-15T05:25:29.600Z,11.18
2023-02-15T05:30:26.178Z,9.98
2023-02-15T05:35:22.698Z,10.05
2023-02-15T05:40:19.311Z,9.55
2023-02-15T05:45:16.546Z,10.90
2023-02-15T05:50:12.883Z,10.82
2023-02-15T05:55:09.793Z,8.85
2023-02-15T06:00:07.178Z,11.98
2023-02-15T06:05:05.553Z,13.63
2023-02-15T06:10:01.911Z,7.93
2023-02-15T06:14:58.299Z,11.30
2023-02-15T06:19:54.618Z,11.73
2023-02-15T06:24:51.035Z,11.32
2023-02-15T06:29:47.415Z,11.65
2023-02-15T06:34:43.780Z,12.63
2023-02-15T06:39:40.145Z,12.30
2023-02-15T06:44:36.608Z,11.70
2023-02-15T06:49:32.978Z,13.35
2023-02-15T06:54:29.421Z,15.10
2023-02-15T06:59:25.835Z,14.20
2023-02-15T07:04:22.236Z,14.13
2023-02-15T07:09:18.623Z,12.60
2023-02-15T07:14:14.949Z,12.80
2023-02-15T07:19:11.365Z,13.23
2023-02-15T07:24:07.819Z,14.85
2023-02-15T07:29:04.222Z,15.68
2023-02-15T07:34:00.551Z,16.02
2023-02-15T07:38:56.931Z,17.00
2023-02-15T07:43:53.288Z,16.73
2023-02-15T07:48:49.667Z,15.57
2023-02-15T07:53:46.106Z,14.70
2023-02-15T07:58:51.639Z,12.38
2023-02-15T08:03:48.355Z,10.32
2023-02-15T08:08:44.906Z,12.73
2023-02-15T08:13:54.500Z,8.68
2023-02-15T08:18:52.645Z,9.23
2023-02-15T08:23:49.178Z,7.53
2023-02-15T08:28:47.310Z,6.78
2023-02-15T08:33:45.830Z,7.53
2023-02-15T08:38:42.864Z,6.28
2023-02-15T08:43:39.787Z,6.40
2023-02-15T08:48:36.152Z,5.95
2023-02-15T08:53:32.456Z,5.85
2023-02-15T08:58:31.583Z,5.93
2023-02-15T09:03:28.577Z,5.57
2023-02-15T09:08:25.304Z,6.40
2023-02-15T09:13:22.175Z,6.55
2023-02-15T09:18:18.667Z,7.28
2023-02-15T09:23:26.743Z,7.57
2023-02-15T09:28:23.468Z,6.10
2023-02-15T09:33:19.869Z,5.93
2023-02-15T09:38:16.208Z,6.00
2023-02-15T09:43:25.275Z,6.50
2023-02-15T09:48:42.005Z,6.32
2023-02-15T09:53:53.433Z,5.80
2023-02-15T09:58:53.511Z,6.22
2023-02-15T10:04:08.536Z,5.85
2023-02-15T10:09:18.471Z,6.13
2023-02-15T10:14:43.679Z,7.13
2023-02-15T10:20:05.648Z,6.70
2023-02-15T10:25:02.786Z,6.00
2023-02-15T10:30:08.348Z,6.30
2023-02-15T10:35:16.595Z,6.53
2023-02-15T10:40:26.477Z,6.20
2023-02-15T10:45:31.940Z,6.57
2023-02-15T10:50:38.141Z,8.20
2023-02-15T10:55:48.449Z,6.22
2023-02-15T11:00:53.318Z,7.22
2023-02-15T11:06:05.555Z,6.75
2023-02-15T11:11:09.992Z,7.50
2023-02-15T11:16:18.979Z,8.70
2023-02-15T11:21:24.103Z,7.82
2023-02-15T11:26:35.433Z,9.73
2023-02-15T11:31:44.955Z,8.05
2023-02-15T11:36:44.371Z,10.45
2023-02-15T11:41:52.980Z,8.60
2023-02-15T11:46:49.986Z,14.18
2023-02-15T11:51:46.377Z,12.55
2023-02-15T11:56:42.736Z,10.13
2023-02-15T12:01:43.453Z,11.45
2023-02-15T12:06:54.056Z,11.88
2023-02-15T12:11:50.455Z,10.30
2023-02-15T12:16:50.543Z,11.02
2023-02-15T12:21:52.040Z,10.38
2023-02-15T12:27:19.793Z,11.18
2023-02-15T12:32:23.280Z,10.48
2023-02-15T12:37:33.046Z,9.48
2023-02-15T12:42:45.852Z,11.43
2023-02-15T12:47:42.374Z,12.27
2023-02-15T12:52:40.106Z,9.82
2023-02-15T12:57:36.662Z,10.48
2023-02-15T13:02:41.961Z,11.40
2023-02-15T13:07:38.703Z,11.00
2023-02-15T13:12:36.018Z,11.02
2023-02-15T13:17:35.419Z,11.00
2023-02-15T13:22:42.966Z,11.45
2023-02-15T13:27:42.210Z,13.20
2023-02-15T13:32:41.963Z,12.63
2023-02-15T13:38:05.123Z,12.05
2023-02-15T13:43:41.183Z,11.50
2023-02-15T13:48:56.203Z,12.32
2023-02-15T13:54:11.775Z,10.85
2023-02-15T13:59:23.548Z,10.85
2023-02-15T14:04:38.900Z,11.45
2023-02-15T14:10:16.930Z,11.52
2023-02-15T14:15:51.597Z,11.68
2023-02-15T14:21:12.572Z,11.25
2023-02-15T14:26:33.160Z,10.65
2023-02-15T14:31:36.169Z,10.52
2023-02-15T14:36:34.148Z,10.77
2023-02-15T14:41:42.761Z,11.45
2023-02-15T14:47:05.875Z,10.73
2023-02-15T14:52:05.908Z,12.40
2023-02-15T14:57:02.259Z,11.48
2023-02-15T15:02:10.261Z,12.68
2023-02-15T15:07:12.760Z,12.00
2023-02-15T15:12:36.089Z,11.23
2023-02-15T15:17:32.492Z,11.77
2023-02-15T15:22:30.919Z,11.55
2023-02-15T15:27:39.621Z,11.50
2023-02-15T15:32:36.597Z,8.77
2023-02-15T15:37:59.194Z,10.68
2023-02-15T15:43:28.818Z,9.38
2023-02-15T15:48:39.103Z,9.75
2023-02-15T15:53:43.156Z,9.55
2023-02-15T15:58:55.290Z,10.07
2023-02-15T16:03:53.943Z,10.88
2023-02-15T16:08:52.106Z,9.32
2023-02-15T16:13:48.624Z,10.65
2023-02-15T16:18:45.806Z,9.57
2023-02-15T16:23:57.958Z,9.25
2023-02-15T16:28:54.923Z,10.38
2023-02-15T16:33:54.732Z,10.52
2023-02-15T16:38:51.021Z,10.20
2023-02-15T16:43:49.964Z,10.50
2023-02-15T16:48:49.492Z,12.00
2023-02-15T16:53:47.998Z,10.35
2023-02-15T17:03:42.843Z,10.55
2023-02-15T17:08:45.771Z,10.02
2023-02-15T17:14:07.501Z,10.02
2023-02-15T17:19:13.950Z,9.52
2023-02-15T17:24:18.444Z,8.95
2023-02-15T17:29:39.228Z,9.60
2023-02-15T17:35:19.908Z,10.57
2023-02-15T17:40:26.975Z,9.50
2023-02-15T17:45:27.124Z,10.35
2023-02-15T17:50:26.005Z,10.02
2023-02-15T17:55:38.758Z,8.18
2023-02-15T18:00:57.616Z,7.38
2023-02-15T18:06:12.842Z,6.55
2023-02-15T18:11:29.176Z,6.32
2023-02-15T18:16:27.374Z,6.50
2023-02-15T18:21:24.686Z,7.05
2023-02-15T18:26:24.354Z,7.13
2023-02-15T18:31:21.593Z,6.72
2023-02-15T18:36:27.923Z,7.03
2023-02-15T18:41:24.506Z,7.07
2023-02-15T18:46:22.247Z,6.93
2023-02-15T18:51:21.291Z,6.50
2023-02-15T18:56:20.581Z,7.95
2023-02-15T19:01:19.838Z,7.55
2023-02-15T19:06:19.108Z,7.63
2023-02-15T19:11:23.005Z,7.13
2023-02-15T19:16:28.933Z,7.63
2023-02-15T19:21:27.755Z,8.57
2023-02-15T19:26:30.757Z,8.57
2023-02-15T19:31:36.200Z,8.05
2023-02-15T19:36:32.644Z,7.80
2023-02-15T19:41:34.269Z,7.53
2023-02-15T19:46:30.614Z,8.05
2023-02-15T19:51:27.680Z,7.85
2023-02-15T19:56:24.458Z,8.85
2023-02-15T20:01:23.033Z,8.25
2023-02-15T20:06:19.524Z,8.38
2023-02-15T20:11:15.878Z,7.88
2023-02-15T20:16:12.251Z,8.20
2023-02-15T20:21:15.110Z,12.75
2023-02-15T20:26:18.147Z,9.38
2023-02-15T20:31:16.471Z,9.52
2023-02-15T20:36:15.218Z,8.60
2023-02-15T20:41:36.005Z,8.68
2023-02-15T20:46:32.370Z,10.05
2023-02-15T20:51:28.727Z,8.98
2023-02-15T20:56:25.617Z,9.55
2023-02-15T21:01:21.953Z,10.27
2023-02-15T21:06:18.751Z,9.50
2023-02-15T21:11:24.151Z,9.00
2023-02-15T21:16:20.785Z,8.60
2023-02-15T21:21:23.604Z,9.68
2023-02-15T21:26:22.517Z,9.15
2023-02-15T21:36:23.427Z,10.60
2023-02-15T21:41:41.050Z,9.85
2023-02-15T21:46:56.125Z,9.43
2023-02-15T21:52:11.179Z,9.32
2023-02-15T21:57:13.324Z,9.73
2023-02-15T22:02:28.305Z,9.23
2023-02-15T22:07:24.690Z,9.95
2023-02-15T22:12:21.951Z,9.68
2023-02-15T22:17:20.899Z,8.77
2023-02-15T22:27:20.517Z,9.55
2023-02-15T22:32:22.927Z,10.68
2023-02-15T22:37:20.275Z,10.65
2023-02-15T22:42:27.943Z,10.00
2023-02-15T22:47:27.941Z,9.25
2023-02-15T22:52:25.277Z,9.80
2023-02-15T22:57:30.008Z,9.70
2023-02-15T23:02:26.854Z,9.75
2023-02-15T23:07:23.409Z,9.60
2023-02-15T23:12:24.494Z,9.75
2023-02-15T23:17:21.336Z,9.50
2023-02-15T23:22:18.245Z,9.75
2023-02-15T23:27:37.357Z,9.88
2023-02-15T23:32:33.714Z,8.80
2023-02-15T23:37:30.123Z,9.68
2023-02-15T23:42:30.507Z,9.35
2023-02-15T23:47:51.313Z,10.38
2023-02-15T23:52:49.354Z,10.10
2023-02-15T23:57:46.235Z,9.63
